Time,TemperatureF,DewpointF,PressureIn,WindDirection,WindDirectionDegrees,WindSpeedMPH,WindSpeedGustMPH,Humidity,HourlyPrecipIn,Conditions,Clouds,dailyrainin,SoftwareType,DateUTC
2013-01-13 00:01:00,39.6,38.0,29.78,NNE,16,1.0,4.0,92,0.06,,,0.49,weatherlink.com 1.10,2013-01-13 09:01:00,
2013-01-13 00:16:00,39.5,38.0,29.79,NNE,16,2.0,4.0,94,0.05,,,0.50,weatherlink.com 1.10,2013-01-13 09:16:00,
2013-01-13 00:31:00,39.7,38.0,29.80,NW,309,4.0,7.0,94,0.04,,,0.00,weatherlink.com 1.10,2013-01-13 09:31:00,
2013-01-13 00:48:00,39.4,38.0,29.81,NNW,336,3.0,6.0,94,0.04,,,0.01,weatherlink.com 1.10,2013-01-13 09:48:00,
2013-01-13 01:01:00,39.0,38.0,29.81,North,355,6.0,7.0,94,0.03,,,0.01,weatherlink.com 1.10,2013-01-13 10:01:00,
2013-01-13 01:16:00,39.3,38.0,29.81,NNW,348,4.0,7.0,94,0.02,,,0.01,weatherlink.com 1.10,2013-01-13 10:16:00,
2013-01-13 01:31:00,39.4,38.0,29.81,North,5,1.0,3.0,94,0.01,,,0.01,weatherlink.com 1.10,2013-01-13 10:31:00,
2013-01-13 01:46:00,39.7,38.0,29.83,North,5,2.0,4.0,93,0.00,,,0.01,weatherlink.com 1.10,2013-01-13 10:46:00,
2013-01-13 02:01:00,40.1,38.0,29.85,WNW,300,0.0,5.0,92,0.02,,,0.03,weatherlink.com 1.10,2013-01-13 11:01:00,
2013-01-13 02:16:00,40.1,38.0,29.84,WNW,283,2.0,6.0,92,0.03,,,0.04,weatherlink.com 1.10,2013-01-13 11:16:00,
2013-01-13 02:31:00,40.1,38.0,29.84,WSW,257,2.0,2.0,92,0.03,,,0.04,weatherlink.com 1.10,2013-01-13 11:31:00,
2013-01-13 02:47:00,40.6,38.0,29.85,North,350,3.0,4.0,90,0.03,,,0.04,weatherlink.com 1.10,2013-01-13 11:47:00,
2013-01-13 03:02:00,38.8,37.0,29.85,NNW,346,3.0,5.0,92,0.01,,,0.04,weatherlink.com 1.10,2013-01-13 12:02:00,
2013-01-13 03:17:00,38.5,37.0,29.84,NNW,346,3.0,5.0,95,0.00,,,0.04,weatherlink.com 1.10,2013-01-13 12:17:00,
2013-01-13 03:32:00,39.2,38.0,29.84,North,11,0.0,5.0,94,0.00,,,0.04,weatherlink.com 1.10,2013-01-13 12:32:00,
2013-01-13 03:47:00,38.8,37.0,29.84,North,11,3.0,5.0,93,0.00,,,0.04,weatherlink.com 1.10,2013-01-13 12:47:00,
2013-01-13 04:02:00,38.3,37.0,29.84,NNW,346,3.0,5.0,94,0.00,,,0.04,weatherlink.com 1.10,2013-01-13 13:02:00,
2013-01-13 04:17:00,38.6,37.0,29.84,NNW,344,2.0,5.0,94,0.00,,,0.04,weatherlink.com 1.10,2013-01-13 13:17:00,
2013-01-13 04:32:00,40.5,38.0,29.84,NNW,344,1.0,3.0,89,0.00,,,0.04,weatherlink.com 1.10,2013-01-13 13:32:00,
2013-01-13 04:47:00,41.7,38.0,29.83,ESE,115,2.0,4.0,86,0.00,,,0.04,weatherlink.com 1.10,2013-01-13 13:47:00,
2013-01-13 05:02:00,40.9,37.0,29.83,ESE,115,2.0,3.0,87,0.00,,,0.04,weatherlink.com 1.10,2013-01-13 14:02:00,
2013-01-13 05:17:00,41.1,38.0,29.84,ESE,115,1.0,3.0,87,0.00,,,0.04,weatherlink.com 1.10,2013-01-13 14:17:00,
2013-01-13 05:32:00,41.8,38.0,29.83,ESE,122,1.0,2.0,85,0.00,,,0.04,weatherlink.com 1.10,2013-01-13 14:32:00,
2013-01-13 05:47:00,41.8,38.0,29.84,ESE,122,0.0,3.0,85,0.00,,,0.04,weatherlink.com 1.10,2013-01-13 14:47:00,
2013-01-13 06:02:00,41.9,38.0,29.84,WNW,289,6.0,7.0,85,0.00,,,0.04,weatherlink.com 1.10,2013-01-13 15:02:00,
2013-01-13 06:17:00,40.3,37.0,29.84,NNW,340,2.0,4.0,88,0.00,,,0.04,weatherlink.com 1.10,2013-01-13 15:17:00,
2013-01-13 06:32:00,38.8,36.0,29.84,North,355,4.0,6.0,90,0.00,,,0.04,weatherlink.com 1.10,2013-01-13 15:32:00,
2013-01-13 06:47:00,38.9,37.0,29.84,North,355,2.0,6.0,91,0.00,,,0.04,weatherlink.com 1.10,2013-01-13 15:47:00,
2013-01-13 07:02:00,38.5,36.0,29.85,North,355,3.0,4.0,92,0.00,,,0.04,weatherlink.com 1.10,2013-01-13 16:02:00,
2013-01-13 07:17:00,38.1,36.0,29.84,NNW,346,3.0,7.0,92,0.00,,,0.04,weatherlink.com 1.10,2013-01-13 16:17:00,
2013-01-13 07:32:00,38.1,36.0,29.83,North,355,5.0,6.0,93,0.00,,,0.04,weatherlink.com 1.10,2013-01-13 16:32:00,
2013-01-13 07:47:00,38.6,37.0,29.83,NNE,23,2.0,6.0,92,0.00,,,0.04,weatherlink.com 1.10,2013-01-13 16:47:00,
2013-01-13 08:02:00,39.8,37.0,29.82,ENE,62,2.0,6.0,88,0.00,,,0.04,weatherlink.com 1.10,2013-01-13 17:02:00,
2013-01-13 08:17:00,40.3,36.0,29.82,NE,36,3.0,7.0,85,0.00,,,0.04,weatherlink.com 1.10,2013-01-13 17:17:00,
2013-01-13 08:32:00,40.4,36.0,29.82,NNE,22,2.0,5.0,83,0.00,,,0.04,weatherlink.com 1.10,2013-01-13 17:32:00,
2013-01-13 08:47:00,40.6,36.0,29.81,NNE,28,4.0,7.0,82,0.00,,,0.04,weatherlink.com 1.10,2013-01-13 17:47:00,
2013-01-13 09:02:00,40.3,36.0,29.81,NE,46,5.0,10.0,83,0.00,,,0.04,weatherlink.com 1.10,2013-01-13 18:02:00,
2013-01-13 09:17:00,40.2,35.0,29.81,NNE,15,6.0,7.0,83,0.00,,,0.04,weatherlink.com 1.10,2013-01-13 18:17:00,
2013-01-13 09:32:00,40.8,35.0,29.81,NE,36,1.0,7.0,81,0.00,,,0.04,weatherlink.com 1.10,2013-01-13 18:32:00,
2013-01-13 09:47:00,40.9,36.0,29.81,NE,53,4.0,6.0,82,0.00,,,0.04,weatherlink.com 1.10,2013-01-13 18:47:00,
2013-01-13 10:02:00,40.5,36.0,29.82,NE,41,2.0,8.0,83,0.00,,,0.04,weatherlink.com 1.10,2013-01-13 19:02:00,
2013-01-13 10:32:00,40.0,37.0,29.82,ENE,63,3.0,8.0,88,0.02,,,0.06,weatherlink.com 1.10,2013-01-13 19:32:00,
2013-01-13 10:47:00,39.2,37.0,29.82,ENE,66,1.0,5.0,90,0.04,,,0.08,weatherlink.com 1.10,2013-01-13 19:47:00,
2013-01-13 11:02:00,38.5,36.0,29.81,ENE,57,2.0,5.0,92,0.06,,,0.10,weatherlink.com 1.10,2013-01-13 20:02:00,
2013-01-13 11:17:00,38.1,36.0,29.79,NE,38,3.0,7.0,93,0.06,,,0.11,weatherlink.com 1.10,2013-01-13 20:17:00,
2013-01-13 11:32:00,38.1,37.0,29.77,NE,52,4.0,7.0,94,0.07,,,0.13,weatherlink.com 1.10,2013-01-13 20:32:00,
2013-01-13 11:47:00,38.2,36.0,29.76,ENE,58,3.0,7.0,93,0.05,,,0.13,weatherlink.com 1.10,2013-01-13 20:47:00,
2013-01-13 12:02:00,38.0,36.0,29.75,North,350,5.0,10.0,93,0.04,,,0.14,weatherlink.com 1.10,2013-01-13 21:02:00,
2013-01-13 12:17:00,37.8,36.0,29.75,NNE,28,4.0,11.0,92,0.05,,,0.16,weatherlink.com 1.10,2013-01-13 21:17:00,
2013-01-13 12:32:00,37.9,36.0,29.75,NNE,22,3.0,5.0,93,0.05,,,0.18,weatherlink.com 1.10,2013-01-13 21:32:00,
2013-01-13 12:47:00,38.5,37.0,29.74,NNW,338,0.0,4.0,93,0.08,,,0.21,weatherlink.com 1.10,2013-01-13 21:47:00,
2013-01-13 13:02:00,37.8,36.0,29.73,NNW,344,3.0,5.0,93,0.09,,,0.23,weatherlink.com 1.10,2013-01-13 22:02:00,
2013-01-13 13:17:00,37.5,36.0,29.71,NNE,22,2.0,4.0,94,0.08,,,0.24,weatherlink.com 1.10,2013-01-13 22:17:00,
2013-01-13 13:32:00,37.1,36.0,29.70,North,5,3.0,5.0,94,0.06,,,0.25,weatherlink.com 1.10,2013-01-13 22:32:00,
2013-01-13 13:48:00,37.0,36.0,29.70,NNW,335,2.0,5.0,95,0.05,,,0.26,weatherlink.com 1.10,2013-01-13 22:48:00,
2013-01-13 14:17:00,36.8,36.0,29.67,NNW,343,3.0,8.0,95,0.05,,,0.29,weatherlink.com 1.10,2013-01-13 23:17:00,
2013-01-13 14:33:00,36.7,35.0,29.67,North,355,4.0,6.0,95,0.06,,,0.31,weatherlink.com 1.10,2013-01-13 23:33:00,
2013-01-13 14:48:00,36.7,36.0,29.65,NNW,344,5.0,7.0,96,0.07,,,0.33,weatherlink.com 1.10,2013-01-13 23:48:00,
2013-01-13 15:03:00,36.8,36.0,29.65,NNW,333,3.0,9.0,96,0.08,,,0.35,weatherlink.com 1.10,2013-01-14 00:03:00,
2013-01-13 15:18:00,37.0,36.0,29.65,NNW,344,1.0,8.0,96,0.09,,,0.38,weatherlink.com 1.10,2013-01-14 00:18:00,
2013-01-13 15:33:00,37.3,36.0,29.64,NNW,329,3.0,7.0,96,0.09,,,0.40,weatherlink.com 1.10,2013-01-14 00:33:00,
2013-01-13 15:48:00,37.3,36.0,29.64,WNW,298,3.0,7.0,96,0.09,,,0.42,weatherlink.com 1.10,2013-01-14 00:48:00,
2013-01-13 16:03:00,37.5,37.0,29.63,NNW,341,2.0,4.0,96,0.08,,,0.43,weatherlink.com 1.10,2013-01-14 01:03:00,
2013-01-13 16:18:00,37.3,36.0,29.62,NNW,347,2.0,5.0,96,0.06,,,0.44,weatherlink.com 1.10,2013-01-14 01:18:00,
2013-01-13 16:48:00,37.7,37.0,29.61,NNW,342,5.0,10.0,97,0.04,,,0.46,weatherlink.com 1.10,2013-01-14 01:48:00,
2013-01-13 17:03:00,38.2,38.0,29.61,North,5,0.0,5.0,97,0.07,,,0.50,weatherlink.com 1.10,2013-01-14 02:03:00,
2013-01-13 17:18:00,38.0,37.0,29.62,NW,317,1.0,9.0,96,0.09,,,0.53,weatherlink.com 1.10,2013-01-14 02:18:00,
2013-01-13 17:33:00,38.2,38.0,29.62,WNW,300,2.0,7.0,97,0.10,,,0.54,weatherlink.com 1.10,2013-01-14 02:33:00,
2013-01-13 17:48:00,38.0,37.0,29.62,NNE,13,1.0,6.0,97,0.08,,,0.54,weatherlink.com 1.10,2013-01-14 02:48:00,
2013-01-13 18:03:00,38.1,37.0,29.63,NW,319,3.0,7.0,97,0.03,,,0.54,weatherlink.com 1.10,2013-01-14 03:03:00,
2013-01-13 18:18:00,37.8,37.0,29.63,North,351,3.0,6.0,97,0.01,,,0.54,weatherlink.com 1.10,2013-01-14 03:18:00,
2013-01-13 18:33:00,37.9,37.0,29.62,NNE,29,7.0,8.0,96,0.00,,,0.54,weatherlink.com 1.10,2013-01-14 03:33:00,
2013-01-13 18:48:00,38.2,37.0,29.61,North,360,4.0,7.0,96,0.00,,,0.54,weatherlink.com 1.10,2013-01-14 03:48:00,
2013-01-13 19:03:00,37.9,37.0,29.61,NNW,346,3.0,6.0,96,0.01,,,0.55,weatherlink.com 1.10,2013-01-14 04:03:00,
2013-01-13 19:18:00,37.6,37.0,29.61,North,355,4.0,7.0,96,0.04,,,0.58,weatherlink.com 1.10,2013-01-14 04:18:00,
2013-01-13 19:33:00,37.8,37.0,29.62,North,349,3.0,7.0,97,0.05,,,0.59,weatherlink.com 1.10,2013-01-14 04:33:00,
2013-01-13 19:48:00,38.2,38.0,29.62,NNW,342,1.0,6.0,97,0.05,,,0.59,weatherlink.com 1.10,2013-01-14 04:48:00,
2013-01-13 20:03:00,38.1,37.0,29.62,NNW,346,1.0,6.0,96,0.04,,,0.59,weatherlink.com 1.10,2013-01-14 05:03:00,
2013-01-13 20:18:00,38.2,38.0,29.62,NNE,15,2.0,6.0,97,0.01,,,0.59,weatherlink.com 1.10,2013-01-14 05:18:00,
2013-01-13 20:33:00,38.5,38.0,29.61,North,355,3.0,6.0,97,0.00,,,0.59,weatherlink.com 1.10,2013-01-14 05:33:00,
2013-01-13 20:48:00,38.2,37.0,29.61,NNW,344,2.0,6.0,96,0.00,,,0.59,weatherlink.com 1.10,2013-01-14 05:48:00,
2013-01-13 21:03:00,37.9,37.0,29.61,North,350,3.0,6.0,96,0.00,,,0.59,weatherlink.com 1.10,2013-01-14 06:03:00,
2013-01-13 21:18:00,38.5,38.0,29.61,NNE,15,3.0,5.0,96,0.00,,,0.59,weatherlink.com 1.10,2013-01-14 06:18:00,
2013-01-13 21:33:00,38.1,37.0,29.61,North,355,4.0,6.0,96,0.00,,,0.59,weatherlink.com 1.10,2013-01-14 06:33:00,
2013-01-13 21:48:00,38.6,38.0,29.61,North,355,3.0,4.0,96,0.00,,,0.59,weatherlink.com 1.10,2013-01-14 06:48:00,
2013-01-13 22:03:00,39.4,38.0,29.59,North,355,3.0,3.0,95,0.00,,,0.59,weatherlink.com 1.10,2013-01-14 07:03:00,
2013-01-13 22:18:00,39.0,38.0,29.59,North,355,1.0,4.0,94,0.00,,,0.59,weatherlink.com 1.10,2013-01-14 07:18:00,
2013-01-13 22:33:00,38.6,37.0,29.59,NNW,341,3.0,6.0,94,0.00,,,0.59,weatherlink.com 1.10,2013-01-14 07:33:00,
2013-01-13 22:48:00,38.4,37.0,29.59,NW,325,3.0,7.0,95,0.00,,,0.59,weatherlink.com 1.10,2013-01-14 07:48:00,
2013-01-13 23:03:00,38.7,37.0,29.60,NNW,347,3.0,5.0,94,0.03,,,0.62,weatherlink.com 1.10,2013-01-14 08:03:00,
2013-01-13 23:18:00,38.8,38.0,29.58,NNE,26,2.0,4.0,95,0.06,,,0.65,weatherlink.com 1.10,2013-01-14 08:18:00,
2013-01-13 23:33:00,39.8,39.0,29.59,NNE,26,3.0,3.0,95,0.07,,,0.66,weatherlink.com 1.10,2013-01-14 08:33:00,
2013-01-13 23:48:00,38.6,37.0,29.60,North,349,2.0,3.0,95,0.07,,,0.66,weatherlink.com 1.10,2013-01-14 08:48:00,